createdAt,value
2023-03-01T00:00:15.663Z,7.88
2023-03-01T00:03:21.502Z,6.05
2023-03-01T00:06:32.222Z,6.15
2023-03-01T00:09:45.113Z,6.65
2023-03-01T00:12:56.705Z,7.18
2023-03-01T00:16:13.111Z,5.32
2023-03-01T00:22:24.305Z,10.15
2023-03-01T00:25:28.706Z,6.55
2023-03-01T00:28:35.734Z,11.45
2023-03-01T00:31:39.828Z,9.25
2023-03-01T00:34:43.873Z,25.95
2023-03-01T00:37:48.177Z,9.07
2023-03-01T00:43:55.700Z,21.30
2023-03-01T00:46:59.088Z,31.45
2023-03-01T00:50:13.285Z,18.77
2023-03-01T00:53:17.304Z,34.92
2023-03-01T00:56:21.123Z,19.25
2023-03-01T00:59:25.372Z,45.05
2023-03-01T01:02:28.866Z,103.17
2023-03-01T01:05:32.617Z,87.38
2023-03-01T01:08:36.112Z,174.13
2023-03-01T01:11:39.380Z,36.38
2023-03-01T01:14:42.613Z,36.35
2023-03-01T01:17:45.989Z,32.47
2023-03-01T01:20:49.280Z,25.50
2023-03-01T01:23:53.149Z,17.65
2023-03-01T01:26:58.901Z,28.50
2023-03-01T01:30:02.402Z,108.28
2023-03-01T01:33:05.755Z,59.50
2023-03-01T01:36:10.163Z,127.05
2023-03-01T01:39:14.777Z,78.82
2023-03-01T01:42:19.754Z,128.77
2023-03-01T01:45:34.680Z,49.97
2023-03-01T01:51:53.509Z,124.38
2023-03-01T01:54:59.655Z,77.63
2023-03-01T01:58:06.842Z,111.43
2023-03-01T02:01:10.637Z,107.18
2023-03-01T02:04:14.012Z,51.20
2023-03-01T02:07:27.652Z,104.97
2023-03-01T02:10:34.967Z,59.25
2023-03-01T02:13:39.087Z,86.97
2023-03-01T02:16:43.242Z,35.95
2023-03-01T02:20:01.972Z,50.60
2023-03-01T02:23:05.469Z,24.83
2023-03-01T02:26:17.238Z,26.58
2023-03-01T02:29:20.537Z,34.03
2023-03-01T02:32:26.771Z,30.48
2023-03-01T02:35:32.284Z,33.25
2023-03-01T02:38:35.637Z,30.23
2023-03-01T02:41:40.492Z,42.25
2023-03-01T02:44:44.135Z,78.95
2023-03-01T02:47:47.654Z,42.65
2023-03-01T02:51:06.917Z,59.28
2023-03-01T02:54:25.636Z,53.83
2023-03-01T02:57:31.936Z,51.47
2023-03-01T03:00:47.197Z,44.33
2023-03-01T03:03:57.715Z,29.48
2023-03-01T03:07:01.181Z,34.70
2023-03-01T03:10:07.286Z,19.48
2023-03-01T03:13:16.177Z,17.13
2023-03-01T03:16:20.805Z,9.65
2023-03-01T03:19:24.358Z,13.18
2023-03-01T03:22:30.506Z,16.25
2023-03-01T03:25:34.001Z,7.10
2023-03-01T03:28:37.391Z,8.80
2023-03-01T03:31:40.778Z,9.23
2023-03-01T03:34:44.271Z,9.73
2023-03-01T03:38:05.680Z,15.30
2023-03-01T03:41:10.161Z,8.05
2023-03-01T03:44:13.421Z,10.32
2023-03-01T03:47:16.630Z,7.97
2023-03-01T03:50:20.273Z,6.22
2023-03-01T03:53:26.779Z,9.98
2023-03-01T03:56:30.566Z,11.88
2023-03-01T03:59:34.018Z,9.32
2023-03-01T04:02:37.388Z,6.32
2023-03-01T04:05:41.967Z,6.45
2023-03-01T04:08:45.192Z,12.70
2023-03-01T04:11:48.407Z,8.65
2023-03-01T04:14:55.001Z,11.85
2023-03-01T04:17:58.656Z,18.58
2023-03-01T04:21:02.900Z,16.52
2023-03-01T04:24:47.024Z,11.75
2023-03-01T04:28:13.617Z,9.88
2023-03-01T04:31:39.734Z,20.15
2023-03-01T04:35:13.781Z,11.60
2023-03-01T04:38:25.392Z,10.70
2023-03-01T04:41:56.270Z,13.20
2023-03-01T04:44:59.630Z,9.65
2023-03-01T04:48:02.946Z,7.93
2023-03-01T04:51:07.429Z,6.47
2023-03-01T04:54:11.950Z,8.65
2023-03-01T04:57:15.215Z,13.50
2023-03-01T05:00:24.930Z,7.95
2023-03-01T05:03:28.800Z,9.13
2023-03-01T05:06:32.343Z,9.43
2023-03-01T05:09:35.793Z,6.03
2023-03-01T05:12:39.066Z,8.23
2023-03-01T05:15:42.652Z,4.90
2023-03-01T05:18:45.994Z,8.30
2023-03-01T05:22:05.594Z,11.48
2023-03-01T05:25:09.316Z,6.68
2023-03-01T05:28:15.849Z,10.23
2023-03-01T05:31:19.088Z,13.48
2023-03-01T05:34:37.160Z,7.63
2023-03-01T05:37:41.400Z,5.50
2023-03-01T05:40:46.321Z,7.47
2023-03-01T05:43:49.603Z,6.13
2023-03-01T05:46:53.368Z,5.53
2023-03-01T05:49:56.640Z,13.05
2023-03-01T05:53:07.357Z,5.18
2023-03-01T05:56:10.721Z,5.57
2023-03-01T05:59:15.424Z,6.43
2023-03-01T06:02:18.673Z,14.18
2023-03-01T06:05:22.414Z,8.57
2023-03-01T06:08:28.552Z,13.55
2023-03-01T06:11:31.954Z,10.43
2023-03-01T06:14:35.293Z,9.90
2023-03-01T06:17:40.152Z,9.95
2023-03-01T06:23:46.471Z,4.30
2023-03-01T06:26:49.743Z,6.93
2023-03-01T06:29:52.988Z,15.73
2023-03-01T06:33:02.530Z,5.53
2023-03-01T06:36:06.304Z,5.70
2023-03-01T06:39:09.862Z,6.60
2023-03-01T06:42:13.278Z,12.48
2023-03-01T06:45:16.772Z,9.85
2023-03-01T06:48:20.051Z,9.35
2023-03-01T06:51:23.293Z,10.30
2023-03-01T06:54:26.593Z,7.18
2023-03-01T06:57:29.918Z,7.72
2023-03-01T07:00:33.543Z,4.40
2023-03-01T07:03:37.086Z,7.45
2023-03-01T07:06:40.362Z,5.80
2023-03-01T07:09:43.639Z,5.85
2023-03-01T07:12:48.209Z,12.13
2023-03-01T07:15:51.491Z,6.03
2023-03-01T07:18:54.743Z,6.75
2023-03-01T07:21:58.007Z,80.97
2023-03-01T07:25:01.264Z,8.05
2023-03-01T07:28:04.593Z,6.60
2023-03-01T07:31:08.339Z,7.82
2023-03-01T07:34:12.500Z,5.97
2023-03-01T07:37:15.816Z,5.68
2023-03-01T07:40:19.432Z,3.65
2023-03-01T07:43:22.668Z,6.25
2023-03-01T07:46:25.946Z,4.43
2023-03-01T07:49:29.245Z,5.20
2023-03-01T07:52:34.094Z,3.80
2023-03-01T07:58:42.405Z,4.38
2023-03-01T08:01:45.687Z,5.00
2023-03-01T08:04:49.171Z,3.58
2023-03-01T08:07:52.477Z,6.13
2023-03-01T08:10:58.880Z,7.40
2023-03-01T08:14:02.163Z,12.18
2023-03-01T08:17:05.532Z,42.97
2023-03-01T08:20:09.479Z,7.97
2023-03-01T08:23:13.002Z,11.87
2023-03-01T08:26:22.259Z,10.88
2023-03-01T08:29:28.300Z,8.57
2023-03-01T08:32:31.702Z,7.80
2023-03-01T08:35:35.049Z,7.95
2023-03-01T08:38:39.323Z,9.63
2023-03-01T08:41:43.133Z,19.10
2023-03-01T08:44:47.056Z,14.38
2023-03-01T08:47:55.320Z,14.13
2023-03-01T08:50:59.212Z,6.40
2023-03-01T08:54:02.430Z,7.50
2023-03-01T08:57:06.020Z,10.52
2023-03-01T09:00:10.837Z,10.77
2023-03-01T09:03:14.410Z,9.32
2023-03-01T09:06:18.283Z,8.63
2023-03-01T09:09:22.194Z,24.77
2023-03-01T09:12:26.819Z,9.68
2023-03-01T09:15:30.647Z,15.55
2023-03-01T09:18:35.363Z,11.75
2023-03-01T09:21:43.204Z,10.45
2023-03-01T09:24:47.146Z,10.38
2023-03-01T09:27:54.111Z,18.93
2023-03-01T09:31:01.439Z,14.30
2023-03-01T09:34:04.916Z,14.90
2023-03-01T09:37:08.746Z,15.97
2023-03-01T09:40:17.680Z,17.67
2023-03-01T09:43:33.818Z,18.65
2023-03-01T09:46:44.001Z,22.60
2023-03-01T09:49:56.406Z,25.55
2023-03-01T09:53:15.699Z,23.10
2023-03-01T09:56:48.532Z,38.70
2023-03-01T10:00:13.996Z,23.20
2023-03-01T10:03:36.922Z,19.30
2023-03-01T10:06:46.709Z,22.70
2023-03-01T10:09:50.549Z,13.57
2023-03-01T10:12:58.457Z,20.23
2023-03-01T10:16:12.185Z,10.07
2023-03-01T10:19:33.905Z,10.90
2023-03-01T10:22:39.423Z,12.25
2023-03-01T10:25:52.172Z,12.50
2023-03-01T10:29:06.584Z,21.35
2023-03-01T10:32:12.961Z,15.98
2023-03-01T10:35:35.606Z,15.23
2023-03-01T10:38:55.641Z,14.75
2023-03-01T10:42:05.265Z,15.85
2023-03-01T10:45:37.297Z,31.50
2023-03-01T10:48:40.747Z,11.63
2023-03-01T10:51:47.015Z,15.00
2023-03-01T10:54:57.947Z,9.05
2023-03-01T10:58:23.449Z,10.98
2023-03-01T11:01:34.360Z,20.00
2023-03-01T11:04:38.845Z,8.27
2023-03-01T11:07:54.495Z,7.03
2023-03-01T11:11:21.544Z,10.95
2023-03-01T11:14:27.868Z,11.68
2023-03-01T11:17:53.567Z,10.60
2023-03-01T11:21:00.474Z,9.07
2023-03-01T11:24:06.160Z,17.42
2023-03-01T11:27:30.155Z,9.88
2023-03-01T11:31:07.839Z,9.80
2023-03-01T11:34:29.752Z,7.90
2023-03-01T11:37:57.689Z,8.82
2023-03-01T11:41:18.134Z,8.32
2023-03-01T11:44:33.588Z,6.10
2023-03-01T11:47:53.755Z,5.63
2023-03-01T11:51:03.912Z,8.80
2023-03-01T11:54:17.897Z,6.32
2023-03-01T11:58:05.463Z,9.00
2023-03-01T12:01:26.817Z,9.60
2023-03-01T12:05:17.353Z,8.35
2023-03-01T12:08:57.313Z,8.52
2023-03-01T12:12:28.992Z,20.88
2023-03-01T12:15:54.569Z,10.32
2023-03-01T12:19:23.950Z,10.90
2023-03-01T12:22:35.014Z,6.68
2023-03-01T12:25:50.318Z,10.05
2023-03-01T12:29:33.776Z,10.30
2023-03-01T12:32:51.286Z,6.10
2023-03-01T12:36:20.506Z,10.27
2023-03-01T12:39:39.404Z,5.63
2023-03-01T12:42:59.197Z,4.18
2023-03-01T12:46:09.004Z,5.22
2023-03-01T12:49:20.296Z,9.45
2023-03-01T12:52:29.159Z,5.30
2023-03-01T12:55:41.834Z,7.55
2023-03-01T12:59:10.626Z,8.48
2023-03-01T13:02:22.859Z,6.32
2023-03-01T13:05:27.734Z,15.95
2023-03-01T13:08:50.878Z,5.55
2023-03-01T13:11:54.705Z,7.57
2023-03-01T13:14:58.559Z,10.33
2023-03-01T13:18:11.150Z,15.53
2023-03-01T13:21:30.423Z,6.95
2023-03-01T13:24:42.960Z,9.85
2023-03-01T13:27:47.979Z,7.88
2023-03-01T13:30:51.311Z,9.10
2023-03-01T13:33:56.449Z,11.27
2023-03-01T13:37:12.863Z,8.68
2023-03-01T13:40:22.491Z,8.48
2023-03-01T13:43:33.752Z,8.00
2023-03-01T13:46:38.549Z,5.30
2023-03-01T13:50:01.700Z,7.30
2023-03-01T13:53:08.595Z,11.63
2023-03-01T13:56:15.554Z,8.02
2023-03-01T13:59:22.281Z,7.43
2023-03-01T14:02:26.036Z,7.00
2023-03-01T14:05:30.962Z,5.27
2023-03-01T14:08:40.053Z,14.15
2023-03-01T14:12:10.054Z,15.18
2023-03-01T14:15:26.681Z,4.45
2023-03-01T14:18:48.618Z,5.82
2023-03-01T14:22:07.004Z,9.70
2023-03-01T14:25:38.781Z,7.68
2023-03-01T14:28:44.640Z,7.32
2023-03-01T14:31:53.374Z,9.60
2023-03-01T14:34:58.556Z,16.02
2023-03-01T14:38:02.022Z,10.38
2023-03-01T14:41:14.431Z,11.57
2023-03-01T14:44:26.755Z,12.10
2023-03-01T14:47:40.009Z,17.23
2023-03-01T14:50:45.185Z,14.82
2023-03-01T14:53:51.204Z,19.25
2023-03-01T14:57:03.502Z,12.40
2023-03-01T15:00:11.173Z,9.18
2023-03-01T15:03:22.199Z,10.07
2023-03-01T15:06:25.736Z,10.98
2023-03-01T15:09:29.058Z,9.43
2023-03-01T15:12:32.940Z,8.80
2023-03-01T15:15:39.881Z,13.95
2023-03-01T15:18:49.742Z,10.60
2023-03-01T15:21:53.610Z,9.85
2023-03-01T15:24:57.340Z,15.83
2023-03-01T15:28:02.285Z,18.23
2023-03-01T15:31:24.917Z,22.98
2023-03-01T15:34:31.195Z,22.80
2023-03-01T15:37:49.190Z,20.98
2023-03-01T15:40:53.920Z,17.77
2023-03-01T15:47:01.352Z,5.38
2023-03-01T15:50:05.547Z,10.98
2023-03-01T15:53:15.994Z,2.63
2023-03-01T15:56:19.752Z,4.80
2023-03-01T15:59:23.977Z,15.80
2023-03-01T16:02:27.554Z,5.72
2023-03-01T16:05:36.453Z,3.85
2023-03-01T16:08:40.491Z,3.80
2023-03-01T16:11:44.825Z,5.60
2023-03-01T16:14:50.119Z,4.03
2023-03-01T16:17:53.914Z,6.25
2023-03-01T16:21:01.296Z,5.63
2023-03-01T16:24:04.973Z,4.57
2023-03-01T16:27:08.783Z,3.67
2023-03-01T16:30:13.947Z,5.22
2023-03-01T16:33:30.612Z,3.75
2023-03-01T16:36:38.353Z,5.93
2023-03-01T16:39:41.619Z,7.82
2023-03-01T16:42:44.977Z,7.72
2023-03-01T16:45:48.293Z,3.70
2023-03-01T16:48:52.165Z,4.00
2023-03-01T16:51:58.555Z,9.38
2023-03-01T16:55:02.012Z,3.53
2023-03-01T16:58:06.047Z,2.50
2023-03-01T17:01:12.563Z,9.00
2023-03-01T17:04:16.181Z,8.15
2023-03-01T17:07:19.758Z,3.47
2023-03-01T17:10:23.807Z,3.97
2023-03-01T17:13:27.069Z,5.65
2023-03-01T17:16:30.862Z,5.15
2023-03-01T17:19:34.029Z,7.20
2023-03-01T17:22:37.337Z,7.43
2023-03-01T17:25:46.679Z,10.82
2023-03-01T17:28:53.044Z,4.68
2023-03-01T17:31:57.380Z,5.45
2023-03-01T17:35:00.735Z,6.07
2023-03-01T17:38:06.246Z,5.68
2023-03-01T17:41:11.613Z,4.75
2023-03-01T17:44:14.807Z,5.88
2023-03-01T17:47:18.062Z,4.72
2023-03-01T17:50:21.312Z,6.63
2023-03-01T17:53:24.689Z,5.03
2023-03-01T17:56:28.108Z,3.33
2023-03-01T17:59:34.146Z,6.28
2023-03-01T18:02:37.594Z,5.03
2023-03-01T18:05:40.870Z,6.05
2023-03-01T18:08:46.224Z,2.90
2023-03-01T18:11:49.546Z,4.80
2023-03-01T18:14:56.030Z,5.68
2023-03-01T18:18:00.084Z,6.47
2023-03-01T18:21:03.426Z,8.15
2023-03-01T18:24:07.229Z,5.63
2023-03-01T18:27:11.346Z,2.77
2023-03-01T18:30:15.652Z,4.57
2023-03-01T18:33:20.030Z,2.20
2023-03-01T18:36:27.373Z,2.75
2023-03-01T18:39:30.812Z,2.53
2023-03-01T18:42:34.053Z,4.78
2023-03-01T18:45:37.316Z,10.43
2023-03-01T18:48:40.854Z,4.05
2023-03-01T18:51:44.525Z,5.40
2023-03-01T18:54:47.944Z,6.20
2023-03-01T18:57:51.325Z,5.90
2023-03-01T19:00:54.650Z,5.22
2023-03-01T19:03:58.132Z,5.40
2023-03-01T19:07:02.873Z,2.85
2023-03-01T19:13:09.248Z,3.25
2023-03-01T19:16:22.323Z,3.25
2023-03-01T19:19:25.639Z,2.38
2023-03-01T19:22:29.087Z,3.97
2023-03-01T19:25:32.316Z,5.25
2023-03-01T19:28:38.410Z,3.50
2023-03-01T19:31:42.794Z,5.07
2023-03-01T19:34:47.339Z,2.42
2023-03-01T19:37:50.511Z,7.38
2023-03-01T19:40:53.973Z,4.85
2023-03-01T19:43:58.101Z,4.15
2023-03-01T19:47:01.422Z,6.07
2023-03-01T19:50:04.792Z,3.83
2023-03-01T19:53:08.082Z,2.67
2023-03-01T19:56:11.455Z,3.35
2023-03-01T19:59:15.592Z,5.35
2023-03-01T20:02:19.011Z,3.42
2023-03-01T20:05:22.318Z,3.08
2023-03-01T20:08:26.376Z,2.75
2023-03-01T20:11:29.627Z,3.47
2023-03-01T20:14:32.945Z,2.63
2023-03-01T20:17:36.194Z,4.93
2023-03-01T20:20:39.424Z,3.47
2023-03-01T20:23:42.645Z,5.28
2023-03-01T20:26:46.045Z,5.25
2023-03-01T20:29:49.892Z,3.33
2023-03-01T20:32:53.137Z,4.20
2023-03-01T20:35:56.387Z,4.47
2023-03-01T20:38:59.634Z,5.45
2023-03-01T20:42:03.400Z,3.70
2023-03-01T20:45:07.238Z,6.03
2023-03-01T20:48:10.433Z,6.80
2023-03-01T20:51:14.642Z,8.30
2023-03-01T20:54:18.177Z,14.38
2023-03-01T20:57:21.388Z,6.70
2023-03-01T21:00:24.652Z,7.53
2023-03-01T21:03:28.326Z,3.92
2023-03-01T21:06:32.385Z,5.43
2023-03-01T21:09:36.710Z,7.72
2023-03-01T21:12:40.027Z,4.45
2023-03-01T21:15:43.319Z,3.08
2023-03-01T21:18:47.035Z,8.95
2023-03-01T21:21:50.286Z,8.82
2023-03-01T21:24:53.584Z,5.50
2023-03-01T21:27:56.770Z,5.47
2023-03-01T21:31:28.294Z,7.20
2023-03-01T21:34:31.777Z,6.32
2023-03-01T21:37:35.274Z,8.40
2023-03-01T21:40:38.532Z,7.35
2023-03-01T21:43:43.823Z,2.80
2023-03-01T21:46:47.418Z,5.88
2023-03-01T21:49:50.625Z,8.40
2023-03-01T21:52:53.835Z,7.07
2023-03-01T21:55:57.430Z,8.18
2023-03-01T21:59:01.628Z,11.02
2023-03-01T22:02:04.905Z,10.23
2023-03-01T22:05:08.754Z,9.95
2023-03-01T22:08:11.988Z,6.13
2023-03-01T22:11:19.889Z,9.82
2023-03-01T22:14:23.222Z,9.70
2023-03-01T22:17:26.537Z,8.82
2023-03-01T22:20:29.672Z,11.27
2023-03-01T22:23:34.789Z,9.20
2023-03-01T22:26:43.535Z,9.55
2023-03-01T22:29:46.806Z,8.20
2023-03-01T22:32:50.457Z,12.50
2023-03-01T22:35:56.901Z,13.60
2023-03-01T22:39:03.119Z,8.63
2023-03-01T22:42:07.406Z,10.73
2023-03-01T22:45:11.269Z,18.15
2023-03-01T22:48:15.106Z,11.40
2023-03-01T22:51:24.745Z,16.60
2023-03-01T22:54:28.168Z,16.92
2023-03-01T22:57:32.171Z,7.60
2023-03-01T23:00:36.345Z,6.10
2023-03-01T23:03:39.627Z,10.75
2023-03-01T23:06:54.633Z,8.43
2023-03-01T23:10:03.030Z,8.25
2023-03-01T23:13:06.834Z,7.80
2023-03-01T23:16:12.092Z,11.70
2023-03-01T23:19:17.347Z,11.63
2023-03-01T23:22:20.796Z,12.48
2023-03-01T23:25:24.327Z,12.48
2023-03-01T23:28:28.277Z,9.48
2023-03-01T23:31:31.663Z,7.82
2023-03-01T23:34:36.094Z,9.27
2023-03-01T23:37:39.402Z,7.15
2023-03-01T23:40:43.108Z,9.18
2023-03-01T23:43:48.484Z,13.38
2023-03-01T23:46:52.920Z,13.50
2023-03-01T23:49:58.074Z,19.77
2023-03-01T23:53:01.500Z,15.75
2023-03-01T23:56:05.526Z,14.48
2023-03-01T23:59:15.056Z,19.95
